sensor_id;sensor_type;location;lat;lon;timestamp;pressure;altitude;pressure_sealevel;temperature;humidity
71107;BME280;58763;47.982;11.516;2023-05-17T00:00:34;94225.97;;;8.39;81.27
71107;BME280;58763;47.982;11.516;2023-05-17T00:03:00;94221.41;;;8.29;80.91
71107;BME280;58763;47.982;11.516;2023-05-17T00:05:27;94218.41;;;8.21;81.14
71107;BME280;58763;47.982;11.516;2023-05-17T00:07:52;94224.31;;;8.18;81.44
71107;BME280;58763;47.982;11.516;2023-05-17T00:10:18;94231.06;;;8.15;81.61
71107;BME280;58763;47.982;11.516;2023-05-17T00:12:44;94235.09;;;8.18;81.41
71107;BME280;58763;47.982;11.516;2023-05-17T00:15:10;94240.75;;;8.21;81.69
71107;BME280;58763;47.982;11.516;2023-05-17T00:17:38;94238.09;;;8.26;80.70
71107;BME280;58763;47.982;11.516;2023-05-17T00:20:04;94244.28;;;8.27;80.53
71107;BME280;58763;47.982;11.516;2023-05-17T00:22:30;94249.38;;;8.23;80.81
71107;BME280;58763;47.982;11.516;2023-05-17T00:24:57;94240.50;;;8.23;80.73
71107;BME280;58763;47.982;11.516;2023-05-17T00:27:23;94246.41;;;8.15;80.35
71107;BME280;58763;47.982;11.516;2023-05-17T00:29:48;94252.34;;;8.07;80.49
71107;BME280;58763;47.982;11.516;2023-05-17T00:32:15;94252.59;;;8.05;80.41
71107;BME280;58763;47.982;11.516;2023-05-17T00:34:41;94256.41;;;8.14;80.77
71107;BME280;58763;47.982;11.516;2023-05-17T00:37:09;94254.22;;;8.06;80.57
71107;BME280;58763;47.982;11.516;2023-05-17T00:39:37;94251.81;;;8.05;80.53
71107;BME280;58763;47.982;11.516;2023-05-17T00:42:05;94260.41;;;8.07;80.58
71107;BME280;58763;47.982;11.516;2023-05-17T00:44:31;94253.16;;;8.02;79.96
71107;BME280;58763;47.982;11.516;2023-05-17T00:46:58;94254.47;;;7.95;80.25
71107;BME280;58763;47.982;11.516;2023-05-17T00:49:28;94257.13;;;7.85;79.85
71107;BME280;58763;47.982;11.516;2023-05-17T00:51:54;94253.38;;;7.86;80.56
71107;BME280;58763;47.982;11.516;2023-05-17T00:54:21;94256.59;;;7.83;80.84
71107;BME280;58763;47.982;11.516;2023-05-17T00:56:47;94254.44;;;7.85;80.46
71107;BME280;58763;47.982;11.516;2023-05-17T00:59:14;94257.69;;;7.82;80.63
71107;BME280;58763;47.982;11.516;2023-05-17T01:01:41;94265.75;;;7.72;80.41
71107;BME280;58763;47.982;11.516;2023-05-17T01:04:08;94266.28;;;7.74;80.64
71107;BME280;58763;47.982;11.516;2023-05-17T01:06:36;94269.47;;;7.65;80.99
71107;BME280;58763;47.982;11.516;2023-05-17T01:09:02;94267.34;;;7.68;81.27
71107;BME280;58763;47.982;11.516;2023-05-17T01:14:31;94270.53;;;7.59;80.60
71107;BME280;58763;47.982;11.516;2023-05-17T01:17:11;94273.19;;;7.49;80.64
71107;BME280;58763;47.982;11.516;2023-05-17T01:22:38;94281.88;;;7.66;81.76
71107;BME280;58763;47.982;11.516;2023-05-17T01:25:40;94284.03;;;7.64;80.88
71107;BME280;58763;47.982;11.516;2023-05-17T01:28:15;94285.91;;;7.69;81.37
71107;BME280;58763;47.982;11.516;2023-05-17T01:30:44;94287.78;;;7.68;80.69
71107;BME280;58763;47.982;11.516;2023-05-17T01:33:13;94293.19;;;7.68;80.79
71107;BME280;58763;47.982;11.516;2023-05-17T01:35:40;94293.69;;;7.60;80.53
71107;BME280;58763;47.982;11.516;2023-05-17T01:38:05;94292.63;;;7.66;80.47
71107;BME280;58763;47.982;11.516;2023-05-17T01:40:34;94294.81;;;7.75;80.56
71107;BME280;58763;47.982;11.516;2023-05-17T01:43:09;94293.19;;;7.74;80.72
71107;BME280;58763;47.982;11.516;2023-05-17T01:45:44;94301.53;;;7.77;80.89
71107;BME280;58763;47.982;11.516;2023-05-17T01:48:14;94298.06;;;7.82;81.33
71107;BME280;58763;47.982;11.516;2023-05-17T01:50:47;94296.97;;;7.83;80.65
71107;BME280;58763;47.982;11.516;2023-05-17T01:53:38;94299.97;;;7.96;80.23
71107;BME280;58763;47.982;11.516;2023-05-17T01:56:09;94306.16;;;7.92;80.00
71107;BME280;58763;47.982;11.516;2023-05-17T01:58:44;94295.69;;;7.95;79.45
71107;BME280;58763;47.982;11.516;2023-05-17T02:01:12;94294.84;;;7.90;79.51
71107;BME280;58763;47.982;11.516;2023-05-17T02:03:39;94302.91;;;7.90;80.15
71107;BME280;58763;47.982;11.516;2023-05-17T02:06:06;94297.25;;;7.91;80.13
71107;BME280;58763;47.982;11.516;2023-05-17T02:08:32;94314.53;;;7.95;80.32
71107;BME280;58763;47.982;11.516;2023-05-17T02:10:58;94297.56;;;7.95;80.66
71107;BME280;58763;47.982;11.516;2023-05-17T02:13:24;94305.59;;;7.85;80.53
71107;BME280;58763;47.982;11.516;2023-05-17T02:15:50;94300.50;;;7.88;81.20
71107;BME280;58763;47.982;11.516;2023-05-17T02:18:17;94304.00;;;7.94;81.11
71107;BME280;58763;47.982;11.516;2023-05-17T02:20:43;94304.84;;;7.99;80.20
71107;BME280;58763;47.982;11.516;2023-05-17T02:23:08;94314.81;;;8.04;80.40
71107;BME280;58763;47.982;11.516;2023-05-17T02:25:34;94312.91;;;7.99;80.30
71107;BME280;58763;47.982;11.516;2023-05-17T02:28:00;94318.25;;;7.89;80.92
71107;BME280;58763;47.982;11.516;2023-05-17T02:30:26;94318.56;;;7.93;80.96
71107;BME280;58763;47.982;11.516;2023-05-17T02:32:53;94317.75;;;7.97;81.21
71107;BME280;58763;47.982;11.516;2023-05-17T02:35:23;94308.88;;;8.02;81.05
71107;BME280;58763;47.982;11.516;2023-05-17T02:37:48;94311.56;;;8.02;81.15
71107;BME280;58763;47.982;11.516;2023-05-17T02:40:15;94312.38;;;8.02;80.66
71107;BME280;58763;47.982;11.516;2023-05-17T02:42:41;94315.88;;;7.98;81.00
71107;BME280;58763;47.982;11.516;2023-05-17T02:45:07;94312.34;;;7.92;80.60
71107;BME280;58763;47.982;11.516;2023-05-17T02:47:35;94321.25;;;7.98;80.55
71107;BME280;58763;47.982;11.516;2023-05-17T02:50:02;94328.81;;;7.96;81.16
71107;BME280;58763;47.982;11.516;2023-05-17T02:52:28;94330.13;;;7.93;81.28
71107;BME280;58763;47.982;11.516;2023-05-17T02:54:54;94329.31;;;7.93;81.27
71107;BME280;58763;47.982;11.516;2023-05-17T02:57:21;94331.50;;;7.96;81.29
71107;BME280;58763;47.982;11.516;2023-05-17T02:59:49;94329.53;;;7.76;81.42
71107;BME280;58763;47.982;11.516;2023-05-17T03:02:14;94334.66;;;7.83;81.38
71107;BME280;58763;47.982;11.516;2023-05-17T03:04:40;94340.09;;;7.93;81.57
71107;BME280;58763;47.982;11.516;2023-05-17T03:07:06;94345.19;;;7.94;81.33
71107;BME280;58763;47.982;11.516;2023-05-17T03:09:32;94354.38;;;7.93;81.60
71107;BME280;58763;47.982;11.516;2023-05-17T03:11:58;94353.56;;;7.98;81.07
71107;BME280;58763;47.982;11.516;2023-05-17T03:14:24;94354.34;;;7.88;81.03
71107;BME280;58763;47.982;11.516;2023-05-17T03:16:50;94353.53;;;7.88;80.92
71107;BME280;58763;47.982;11.516;2023-05-17T03:19:16;94354.34;;;7.88;81.66
71107;BME280;58763;47.982;11.516;2023-05-17T03:21:44;94362.94;;;7.85;81.68
71107;BME280;58763;47.982;11.516;2023-05-17T03:24:10;94370.00;;;8.01;81.17
71107;BME280;58763;47.982;11.516;2023-05-17T03:26:36;94376.72;;;7.99;81.55
71107;BME280;58763;47.982;11.516;2023-05-17T03:29:03;94366.78;;;8.04;81.44
71107;BME280;58763;47.982;11.516;2023-05-17T03:31:29;94376.16;;;7.92;82.17
71107;BME280;58763;47.982;11.516;2023-05-17T03:33:56;94376.44;;;7.95;81.72
71107;BME280;58763;47.982;11.516;2023-05-17T03:36:22;94375.91;;;7.98;82.00
71107;BME280;58763;47.982;11.516;2023-05-17T03:38:48;94381.56;;;7.97;82.19
71107;BME280;58763;47.982;11.516;2023-05-17T03:41:15;94388.28;;;7.94;82.27
71107;BME280;58763;47.982;11.516;2023-05-17T03:43:41;94391.78;;;7.95;82.29
71107;BME280;58763;47.982;11.516;2023-05-17T03:46:07;94388.25;;;7.89;82.47
71107;BME280;58763;47.982;11.516;2023-05-17T03:48:32;94390.72;;;7.96;81.76
71107;BME280;58763;47.982;11.516;2023-05-17T03:50:59;94390.47;;;8.02;81.96
71107;BME280;58763;47.982;11.516;2023-05-17T03:53:25;94392.63;;;8.00;81.92
71107;BME280;58763;47.982;11.516;2023-05-17T03:55:51;94400.94;;;7.99;81.68
71107;BME280;58763;47.982;11.516;2023-05-17T03:58:17;94404.19;;;7.96;81.94
71107;BME280;58763;47.982;11.516;2023-05-17T04:00:43;94413.09;;;8.01;81.44
71107;BME280;58763;47.982;11.516;2023-05-17T04:03:09;94411.72;;;7.99;81.74
71107;BME280;58763;47.982;11.516;2023-05-17T04:05:38;94417.91;;;7.94;82.04
71107;BME280;58763;47.982;11.516;2023-05-17T04:08:05;94420.31;;;7.86;81.64
71107;BME280;58763;47.982;11.516;2023-05-17T04:10:32;94420.84;;;7.88;80.74
71107;BME280;58763;47.982;11.516;2023-05-17T04:12:59;94422.41;;;7.79;80.58
71107;BME280;58763;47.982;11.516;2023-05-17T04:15:25;94428.88;;;7.78;80.61
71107;BME280;58763;47.982;11.516;2023-05-17T04:17:51;94432.97;;;7.90;80.27
71107;BME280;58763;47.982;11.516;2023-05-17T04:20:18;94431.63;;;7.88;80.46
71107;BME280;58763;47.982;11.516;2023-05-17T04:22:43;94431.13;;;8.01;80.85
71107;BME280;58763;47.982;11.516;2023-05-17T04:25:09;94432.72;;;7.97;80.91
71107;BME280;58763;47.982;11.516;2023-05-17T04:27:36;94436.78;;;7.99;79.00
71107;BME280;58763;47.982;11.516;2023-05-17T04:30:02;94439.69;;;7.88;78.64
71107;BME280;58763;47.982;11.516;2023-05-17T04:32:28;94436.72;;;7.89;78.04
71107;BME280;58763;47.982;11.516;2023-05-17T04:34:55;94435.91;;;7.84;78.85
71107;BME280;58763;47.982;11.516;2023-05-17T04:37:22;94444.78;;;7.79;77.71
71107;BME280;58763;47.982;11.516;2023-05-17T04:39:48;94447.16;;;7.76;76.43
71107;BME280;58763;47.982;11.516;2023-05-17T04:42:14;94453.34;;;7.76;77.00
71107;BME280;58763;47.982;11.516;2023-05-17T04:44:40;94457.34;;;7.68;77.07
71107;BME280;58763;47.982;11.516;2023-05-17T04:47:06;94462.22;;;7.72;76.70
71107;BME280;58763;47.982;11.516;2023-05-17T04:49:32;94460.56;;;7.65;77.07
71107;BME280;58763;47.982;11.516;2023-05-17T04:51:59;94463.78;;;7.62;76.88
71107;BME280;58763;47.982;11.516;2023-05-17T04:54:24;94458.38;;;7.57;76.49
71107;BME280;58763;47.982;11.516;2023-05-17T04:56:50;94459.44;;;7.56;76.91
71107;BME280;58763;47.982;11.516;2023-05-17T04:59:16;94459.38;;;7.46;76.90
71107;BME280;58763;47.982;11.516;2023-05-17T05:01:46;94465.78;;;7.40;76.10
71107;BME280;58763;47.982;11.516;2023-05-17T05:04:11;94462.81;;;7.37;77.24
71107;BME280;58763;47.982;11.516;2023-05-17T05:06:39;94470.06;;;7.36;77.59
71107;BME280;58763;47.982;11.516;2023-05-17T05:09:05;94467.66;;;7.40;77.92
71107;BME280;58763;47.982;11.516;2023-05-17T05:11:32;94469.03;;;7.42;77.94
71107;BME280;58763;47.982;11.516;2023-05-17T05:13:57;94472.56;;;7.48;78.59
71107;BME280;58763;47.982;11.516;2023-05-17T05:16:24;94470.94;;;7.47;77.97
71107;BME280;58763;47.982;11.516;2023-05-17T05:18:51;94473.94;;;7.50;77.54
71107;BME280;58763;47.982;11.516;2023-05-17T05:21:17;94478.25;;;7.56;77.86
71107;BME280;58763;47.982;11.516;2023-05-17T05:23:44;94478.22;;;7.51;77.40
71107;BME280;58763;47.982;11.516;2023-05-17T05:26:09;94481.41;;;7.43;77.61
71107;BME280;58763;47.982;11.516;2023-05-17T05:28:37;94484.44;;;7.52;78.05
71107;BME280;58763;47.982;11.516;2023-05-17T05:31:03;94482.78;;;7.46;78.72
71107;BME280;58763;47.982;11.516;2023-05-17T05:33:29;94481.50;;;7.58;78.00
71107;BME280;58763;47.982;11.516;2023-05-17T05:35:57;94483.66;;;7.56;78.27
71107;BME280;58763;47.982;11.516;2023-05-17T05:38:23;94476.44;;;7.62;77.23
71107;BME280;58763;47.982;11.516;2023-05-17T05:40:49;94483.94;;;7.60;76.89
71107;BME280;58763;47.982;11.516;2023-05-17T05:43:18;94487.41;;;7.55;77.39
71107;BME280;58763;47.982;11.516;2023-05-17T05:45:46;94478.88;;;7.68;76.85
71107;BME280;58763;47.982;11.516;2023-05-17T05:48:14;94477.81;;;7.70;76.83
71107;BME280;58763;47.982;11.516;2023-05-17T05:50:41;94484.31;;;7.74;77.60
71107;BME280;58763;47.982;11.516;2023-05-17T05:53:09;94490.81;;;7.83;77.35
71107;BME280;58763;47.982;11.516;2023-05-17T05:55:40;94482.19;;;7.81;77.40
71107;BME280;58763;47.982;11.516;2023-05-17T05:58:07;94481.72;;;7.89;77.66
71107;BME280;58763;47.982;11.516;2023-05-17T06:00:33;94493.25;;;7.89;76.36
71107;BME280;58763;47.982;11.516;2023-05-17T06:03:00;94491.91;;;7.87;76.61
71107;BME280;58763;47.982;11.516;2023-05-17T06:05:27;94488.22;;;7.98;76.79
71107;BME280;58763;47.982;11.516;2023-05-17T06:07:52;94494.66;;;7.97;76.99
71107;BME280;58763;47.982;11.516;2023-05-17T06:10:18;94498.44;;;8.01;76.70
71107;BME280;58763;47.982;11.516;2023-05-17T06:12:44;94498.50;;;8.11;76.68
71107;BME280;58763;47.982;11.516;2023-05-17T06:15:12;94504.94;;;8.10;75.82
71107;BME280;58763;47.982;11.516;2023-05-17T06:17:37;94501.88;;;7.86;75.37
71107;BME280;58763;47.982;11.516;2023-05-17T06:20:05;94501.66;;;7.93;75.91
71107;BME280;58763;47.982;11.516;2023-05-17T06:22:31;94508.94;;;7.55;77.46
71107;BME280;58763;47.982;11.516;2023-05-17T06:24:57;94508.16;;;7.60;77.61
71107;BME280;58763;47.982;11.516;2023-05-17T06:27:25;94511.19;;;7.68;77.41
71107;BME280;58763;47.982;11.516;2023-05-17T06:29:51;94516.88;;;7.72;77.05
71107;BME280;58763;47.982;11.516;2023-05-17T06:32:17;94510.94;;;7.75;77.66
71107;BME280;58763;47.982;11.516;2023-05-17T06:34:44;94518.00;;;7.81;76.05
71107;BME280;58763;47.982;11.516;2023-05-17T06:37:11;94518.81;;;7.87;76.03
71107;BME280;58763;47.982;11.516;2023-05-17T06:39:37;94517.78;;;7.93;75.03
71107;BME280;58763;47.982;11.516;2023-05-17T06:42:03;94523.47;;;7.96;77.00
71107;BME280;58763;47.982;11.516;2023-05-17T06:44:30;94524.91;;;8.14;75.78
71107;BME280;58763;47.982;11.516;2023-05-17T06:46:56;94519.56;;;8.19;73.26
71107;BME280;58763;47.982;11.516;2023-05-17T06:49:21;94529.53;;;8.23;73.16
71107;BME280;58763;47.982;11.516;2023-05-17T06:51:48;94534.13;;;8.23;74.02
71107;BME280;58763;47.982;11.516;2023-05-17T06:54:14;94528.44;;;8.24;73.88
71107;BME280;58763;47.982;11.516;2023-05-17T06:56:41;94537.41;;;8.30;72.37
71107;BME280;58763;47.982;11.516;2023-05-17T06:59:07;94535.81;;;8.34;71.76
71107;BME280;58763;47.982;11.516;2023-05-17T07:01:33;94539.84;;;8.31;72.50
71107;BME280;58763;47.982;11.516;2023-05-17T07:03:59;94538.47;;;8.29;71.70
71107;BME280;58763;47.982;11.516;2023-05-17T07:06:25;94540.03;;;8.20;72.90
71107;BME280;58763;47.982;11.516;2023-05-17T07:08:53;94549.00;;;8.30;73.42
71107;BME280;58763;47.982;11.516;2023-05-17T07:11:19;94548.78;;;8.42;73.97
71107;BME280;58763;47.982;11.516;2023-05-17T07:13:44;94545.81;;;8.44;73.10
71107;BME280;58763;47.982;11.516;2023-05-17T07:16:10;94541.25;;;8.54;72.81
71107;BME280;58763;47.982;11.516;2023-05-17T07:18:37;94543.72;;;8.56;72.12
71107;BME280;58763;47.982;11.516;2023-05-17T07:21:03;94555.28;;;8.51;72.57
71107;BME280;58763;47.982;11.516;2023-05-17T07:23:30;94550.47;;;8.58;72.39
71107;BME280;58763;47.982;11.516;2023-05-17T07:25:56;94556.88;;;8.47;72.24
71107;BME280;58763;47.982;11.516;2023-05-17T07:28:22;94551.16;;;8.33;71.47
71107;BME280;58763;47.982;11.516;2023-05-17T07:30:49;94559.56;;;8.47;72.24
71107;BME280;58763;47.982;11.516;2023-05-17T07:33:15;94559.03;;;8.45;71.95
71107;BME280;58763;47.982;11.516;2023-05-17T07:35:41;94556.31;;;8.45;71.99
71107;BME280;58763;47.982;11.516;2023-05-17T07:38:07;94557.97;;;8.46;71.76
71107;BME280;58763;47.982;11.516;2023-05-17T07:40:36;94556.69;;;8.69;72.10
71107;BME280;58763;47.982;11.516;2023-05-17T07:43:02;94553.53;;;8.82;71.33
71107;BME280;58763;47.982;11.516;2023-05-17T07:45:28;94562.41;;;8.87;70.57
71107;BME280;58763;47.982;11.516;2023-05-17T07:47:53;94557.03;;;8.87;70.46
71107;BME280;58763;47.982;11.516;2023-05-17T07:50:21;94547.81;;;8.78;70.46
71107;BME280;58763;47.982;11.516;2023-05-17T07:52:48;94554.06;;;8.89;69.75
71107;BME280;58763;47.982;11.516;2023-05-17T07:55:14;94557.88;;;8.98;69.78
71107;BME280;58763;47.982;11.516;2023-05-17T07:57:41;94558.19;;;9.17;70.02
71107;BME280;58763;47.982;11.516;2023-05-17T08:00:07;94561.13;;;9.15;71.70
71107;BME280;58763;47.982;11.516;2023-05-17T08:02:37;94564.63;;;9.16;72.09
71107;BME280;58763;47.982;11.516;2023-05-17T08:05:03;94568.16;;;9.21;70.44
71107;BME280;58763;47.982;11.516;2023-05-17T08:07:29;94558.16;;;9.27;70.03
71107;BME280;58763;47.982;11.516;2023-05-17T08:09:56;94566.28;;;9.27;69.44
71107;BME280;58763;47.982;11.516;2023-05-17T08:12:22;94562.00;;;9.36;69.31
71107;BME280;58763;47.982;11.516;2023-05-17T08:14:47;94562.78;;;9.41;69.43
71107;BME280;58763;47.982;11.516;2023-05-17T08:17:14;94563.88;;;9.50;70.10
71107;BME280;58763;47.982;11.516;2023-05-17T08:19:40;94568.19;;;9.61;69.56
71107;BME280;58763;47.982;11.516;2023-05-17T08:22:07;94564.41;;;9.62;69.21
71107;BME280;58763;47.982;11.516;2023-05-17T08:24:35;94563.59;;;9.67;68.81
71107;BME280;58763;47.982;11.516;2023-05-17T08:27:01;94568.19;;;9.82;68.09
71107;BME280;58763;47.982;11.516;2023-05-17T08:29:26;94568.97;;;9.97;67.42
71107;BME280;58763;47.982;11.516;2023-05-17T08:31:53;94573.28;;;10.08;67.80
71107;BME280;58763;47.982;11.516;2023-05-17T08:34:19;94575.19;;;10.23;66.71
71107;BME280;58763;47.982;11.516;2023-05-17T08:36:45;94573.75;;;10.51;65.22
71107;BME280;58763;47.982;11.516;2023-05-17T08:39:11;94582.38;;;10.58;66.53
71107;BME280;58763;47.982;11.516;2023-05-17T08:41:38;94582.16;;;10.54;65.67
71107;BME280;58763;47.982;11.516;2023-05-17T08:44:06;94582.06;;;10.69;63.22
71107;BME280;58763;47.982;11.516;2023-05-17T08:46:34;94579.66;;;10.68;63.98
71107;BME280;58763;47.982;11.516;2023-05-17T08:49:01;94589.66;;;10.67;62.99
71107;BME280;58763;47.982;11.516;2023-05-17T08:51:31;94579.19;;;10.46;64.80
71107;BME280;58763;47.982;11.516;2023-05-17T08:53:57;94591.09;;;10.45;62.07
71107;BME280;58763;47.982;11.516;2023-05-17T08:56:24;94590.56;;;10.48;63.57
71107;BME280;58763;47.982;11.516;2023-05-17T08:59:05;94595.59;;;10.64;63.19
71107;BME280;58763;47.982;11.516;2023-05-17T09:01:33;94593.19;;;10.68;63.31
71107;BME280;58763;47.982;11.516;2023-05-17T09:03:59;94603.13;;;10.82;62.25
71107;BME280;58763;47.982;11.516;2023-05-17T09:06:28;94602.84;;;10.89;62.86
71107;BME280;58763;47.982;11.516;2023-05-17T09:08:55;94604.72;;;10.88;64.32
71107;BME280;58763;47.982;11.516;2023-05-17T09:11:30;94608.25;;;10.84;62.92
71107;BME280;58763;47.982;11.516;2023-05-17T09:14:04;94606.69;;;10.73;61.57
71107;BME280;58763;47.982;11.516;2023-05-17T09:16:33;94609.41;;;10.68;63.03
71107;BME280;58763;47.982;11.516;2023-05-17T09:19:02;94607.00;;;10.61;62.29
71107;BME280;58763;47.982;11.516;2023-05-17T09:21:30;94616.72;;;10.62;62.41
71107;BME280;58763;47.982;11.516;2023-05-17T09:23:57;94607.50;;;10.73;61.74
71107;BME280;58763;47.982;11.516;2023-05-17T09:26:41;94619.16;;;10.64;62.78
71107;BME280;58763;47.982;11.516;2023-05-17T09:29:14;94616.38;;;10.84;62.32
71107;BME280;58763;47.982;11.516;2023-05-17T09:31:43;94618.47;;;10.97;62.35
71107;BME280;58763;47.982;11.516;2023-05-17T09:34:09;94617.94;;;11.00;62.46
71107;BME280;58763;47.982;11.516;2023-05-17T09:36:37;94620.94;;;10.98;61.76
71107;BME280;58763;47.982;11.516;2023-05-17T09:39:06;94616.59;;;10.92;61.51
71107;BME280;58763;47.982;11.516;2023-05-17T09:41:45;94609.59;;;10.96;62.66
71107;BME280;58763;47.982;11.516;2023-05-17T09:44:13;94614.66;;;11.08;63.56
71107;BME280;58763;47.982;11.516;2023-05-17T09:46:47;94617.91;;;11.10;64.01
71107;BME280;58763;47.982;11.516;2023-05-17T09:49:14;94623.00;;;11.17;64.24
71107;BME280;58763;47.982;11.516;2023-05-17T09:51:43;94616.25;;;11.14;63.89
71107;BME280;58763;47.982;11.516;2023-05-17T09:54:09;94615.97;;;11.16;63.09
71107;BME280;58763;47.982;11.516;2023-05-17T09:56:37;94610.09;;;10.98;62.24
71107;BME280;58763;47.982;11.516;2023-05-17T09:59:10;94611.47;;;10.91;63.62
71107;BME280;58763;47.982;11.516;2023-05-17T10:01:39;94619.50;;;11.11;62.13
71107;BME280;58763;47.982;11.516;2023-05-17T10:04:09;94611.22;;;11.41;62.21
71107;BME280;58763;47.982;11.516;2023-05-17T10:06:37;94615.25;;;11.49;62.55
71107;BME280;58763;47.982;11.516;2023-05-17T10:09:05;94614.00;;;11.80;62.64
71107;BME280;58763;47.982;11.516;2023-05-17T10:11:34;94608.47;;;12.24;61.43
71107;BME280;58763;47.982;11.516;2023-05-17T10:14:25;94601.06;;;12.58;58.16
71107;BME280;58763;47.982;11.516;2023-05-17T10:16:53;94603.44;;;12.88;57.72
71107;BME280;58763;47.982;11.516;2023-05-17T10:19:21;94600.22;;;13.10;55.36
71107;BME280;58763;47.982;11.516;2023-05-17T10:21:49;94596.72;;;12.86;53.43
71107;BME280;58763;47.982;11.516;2023-05-17T10:24:15;94608.38;;;13.10;56.20
71107;BME280;58763;47.982;11.516;2023-05-17T10:26:42;94591.97;;;13.20;55.66
71107;BME280;58763;47.982;11.516;2023-05-17T10:29:08;94596.75;;;13.47;53.56
71107;BME280;58763;47.982;11.516;2023-05-17T10:31:35;94598.94;;;13.82;53.25
71107;BME280;58763;47.982;11.516;2023-05-17T10:34:03;94602.00;;;13.20;50.59
71107;BME280;58763;47.982;11.516;2023-05-17T10:36:32;94590.88;;;13.40;51.53
71107;BME280;58763;47.982;11.516;2023-05-17T10:38:58;94592.84;;;13.34;52.50
71107;BME280;58763;47.982;11.516;2023-05-17T10:41:29;94589.63;;;13.32;52.53
71107;BME280;58763;47.982;11.516;2023-05-17T10:43:57;94593.66;;;13.35;53.25
71107;BME280;58763;47.982;11.516;2023-05-17T10:46:24;94591.91;;;13.44;53.69
71107;BME280;58763;47.982;11.516;2023-05-17T10:48:51;94588.97;;;13.59;53.79
71107;BME280;58763;47.982;11.516;2023-05-17T10:51:27;94593.88;;;13.75;51.81
71107;BME280;58763;47.982;11.516;2023-05-17T10:56:34;94582.94;;;13.80;53.32
71107;BME280;58763;47.982;11.516;2023-05-17T11:01:57;94584.34;;;13.78;50.66
71107;BME280;58763;47.982;11.516;2023-05-17T11:04:41;94579.94;;;13.63;49.38
71107;BME280;58763;47.982;11.516;2023-05-17T11:09:44;94576.94;;;13.65;48.82
71107;BME280;58763;47.982;11.516;2023-05-17T11:12:13;94589.03;;;13.72;51.81
71107;BME280;58763;47.982;11.516;2023-05-17T11:17:25;94578.72;;;13.56;55.60
71107;BME280;58763;47.982;11.516;2023-05-17T11:22:22;94576.13;;;13.27;57.53
71107;BME280;58763;47.982;11.516;2023-05-17T11:24:51;94576.56;;;13.34;56.56
71107;BME280;58763;47.982;11.516;2023-05-17T11:27:21;94574.78;;;13.25;57.34
71107;BME280;58763;47.982;11.516;2023-05-17T11:29:55;94581.22;;;13.10;59.72
71107;BME280;58763;47.982;11.516;2023-05-17T11:32:27;94566.66;;;13.01;60.42
71107;BME280;58763;47.982;11.516;2023-05-17T11:34:54;94568.88;;;12.75;61.66
71107;BME280;58763;47.982;11.516;2023-05-17T11:37:27;94570.31;;;12.68;62.75
71107;BME280;58763;47.982;11.516;2023-05-17T11:40:06;94569.63;;;12.57;62.44
71107;BME280;58763;47.982;11.516;2023-05-17T11:42:34;94576.56;;;12.16;63.51
71107;BME280;58763;47.982;11.516;2023-05-17T11:45:03;94570.72;;;12.04;62.80
71107;BME280;58763;47.982;11.516;2023-05-17T11:47:29;94571.66;;;12.18;62.99
71107;BME280;58763;47.982;11.516;2023-05-17T11:50:02;94572.22;;;12.15;62.28
71107;BME280;58763;47.982;11.516;2023-05-17T11:52:30;94570.06;;;12.12;63.82
71107;BME280;58763;47.982;11.516;2023-05-17T11:54:57;94575.97;;;12.19;62.89
71107;BME280;58763;47.982;11.516;2023-05-17T11:57:29;94577.47;;;12.30;62.63
71107;BME280;58763;47.982;11.516;2023-05-17T12:00:00;94583.97;;;12.34;62.97
71107;BME280;58763;47.982;11.516;2023-05-17T12:02:27;94587.06;;;12.22;61.36
71107;BME280;58763;47.982;11.516;2023-05-17T12:04:54;94581.41;;;12.19;61.37
71107;BME280;58763;47.982;11.516;2023-05-17T12:07:21;94581.44;;;12.14;61.69
71107;BME280;58763;47.982;11.516;2023-05-17T12:09:51;94583.38;;;12.13;63.63
71107;BME280;58763;47.982;11.516;2023-05-17T12:12:18;94589.19;;;11.97;63.89
71107;BME280;58763;47.982;11.516;2023-05-17T12:14:49;94593.88;;;11.86;64.55
71107;BME280;58763;47.982;11.516;2023-05-17T12:17:30;94586.50;;;11.97;65.53
71107;BME280;58763;47.982;11.516;2023-05-17T12:20:06;94582.28;;;12.09;66.17
71107;BME280;58763;47.982;11.516;2023-05-17T12:22:33;94585.25;;;12.41;66.48
71107;BME280;58763;47.982;11.516;2023-05-17T12:25:02;94581.97;;;12.68;66.61
71107;BME280;58763;47.982;11.516;2023-05-17T12:27:28;94581.66;;;12.70;63.90
71107;BME280;58763;47.982;11.516;2023-05-17T12:29:56;94580.81;;;12.74;64.34
71107;BME280;58763;47.982;11.516;2023-05-17T12:32:22;94579.50;;;12.72;61.26
71107;BME280;58763;47.982;11.516;2023-05-17T12:34:49;94579.59;;;12.62;61.30
71107;BME280;58763;47.982;11.516;2023-05-17T12:37:15;94577.63;;;12.43;63.25
71107;BME280;58763;47.982;11.516;2023-05-17T12:39:42;94585.06;;;12.33;62.05
71107;BME280;58763;47.982;11.516;2023-05-17T12:42:11;94590.56;;;12.23;61.76
71107;BME280;58763;47.982;11.516;2023-05-17T12:44:38;94581.50;;;12.09;62.73
71107;BME280;58763;47.982;11.516;2023-05-17T12:47:04;94587.75;;;12.04;63.18
71107;BME280;58763;47.982;11.516;2023-05-17T12:49:29;94596.00;;;11.94;64.03
71107;BME280;58763;47.982;11.516;2023-05-17T12:52:02;94594.19;;;11.79;64.83
71107;BME280;58763;47.982;11.516;2023-05-17T12:54:29;94593.66;;;11.83;64.24
71107;BME280;58763;47.982;11.516;2023-05-17T12:56:56;94599.16;;;11.62;63.28
71107;BME280;58763;47.982;11.516;2023-05-17T12:59:22;94598.06;;;11.73;63.89
71107;BME280;58763;47.982;11.516;2023-05-17T13:01:55;94602.03;;;11.81;63.30
71107;BME280;58763;47.982;11.516;2023-05-17T13:04:32;94597.09;;;11.88;63.69
71107;BME280;58763;47.982;11.516;2023-05-17T13:07:00;94600.78;;;11.68;62.27
71107;BME280;58763;47.982;11.516;2023-05-17T13:09:27;94602.31;;;11.85;63.96
71107;BME280;58763;47.982;11.516;2023-05-17T13:12:00;94601.44;;;11.50;64.67
71107;BME280;58763;47.982;11.516;2023-05-17T13:17:09;94596.72;;;11.66;64.31
71107;BME280;58763;47.982;11.516;2023-05-17T13:19:37;94591.84;;;11.68;65.09
71107;BME280;58763;47.982;11.516;2023-05-17T13:22:05;94591.03;;;11.67;65.87